createdAt,value
2022-12-23T00:02:30.244Z,5.21
2022-12-23T00:05:38.202Z,5.30
2022-12-23T00:08:42.041Z,5.31
2022-12-23T00:12:04.624Z,5.31
2022-12-23T00:15:07.525Z,5.36
2022-12-23T00:18:10.131Z,5.38
2022-12-23T00:21:16.470Z,5.34
2022-12-23T00:24:19.160Z,5.44
2022-12-23T00:27:21.469Z,5.46
2022-12-23T00:30:24.535Z,5.41
2022-12-23T00:33:29.749Z,5.46
2022-12-23T00:36:32.492Z,5.48
2022-12-23T00:39:55.166Z,5.40
2022-12-23T00:42:59.873Z,5.45
2022-12-23T00:46:02.204Z,5.46
2022-12-23T00:49:23.887Z,5.41
2022-12-23T00:52:27.133Z,5.46
2022-12-23T00:55:30.502Z,5.49
2022-12-23T00:58:32.824Z,5.52
2022-12-23T01:01:54.508Z,5.54
2022-12-23T01:05:15.432Z,5.56
2022-12-23T01:08:18.014Z,5.54
2022-12-23T01:11:20.335Z,5.48
2022-12-23T01:14:23.500Z,5.52
2022-12-23T01:17:25.852Z,5.53
2022-12-23T01:20:28.523Z,5.47
2022-12-23T01:23:31.278Z,5.56
2022-12-23T01:26:34.072Z,5.53
2022-12-23T01:29:36.420Z,5.55
2022-12-23T01:32:39.020Z,5.66
2022-12-23T01:35:41.340Z,5.59
2022-12-23T01:38:44.044Z,5.68
2022-12-23T01:42:04.871Z,5.67
2022-12-23T01:45:16.188Z,5.62
2022-12-23T01:48:21.957Z,5.70
2022-12-23T01:51:30.008Z,5.70
2022-12-23T01:54:33.023Z,5.69
2022-12-23T01:57:40.112Z,5.65
2022-12-23T02:01:01.455Z,5.63
2022-12-23T02:04:09.699Z,5.56
2022-12-23T02:07:32.100Z,5.52
2022-12-23T02:10:52.217Z,5.53
2022-12-23T02:14:38.080Z,5.57
2022-12-23T02:18:11.393Z,5.46
2022-12-23T02:21:22.968Z,5.53
2022-12-23T02:24:59.317Z,5.49
2022-12-23T02:28:42.463Z,5.43
2022-12-23T02:31:58.253Z,5.26
2022-12-23T02:35:09.587Z,5.20
2022-12-23T02:38:20.888Z,5.21
2022-12-23T02:41:31.506Z,5.13
2022-12-23T02:44:45.069Z,5.16
2022-12-23T02:47:55.137Z,5.04
2022-12-23T02:51:00.265Z,5.08
2022-12-23T02:54:07.117Z,5.00
2022-12-23T02:57:12.722Z,5.00
2022-12-23T03:00:16.054Z,5.09
2022-12-23T03:03:21.143Z,4.95
2022-12-23T03:06:29.274Z,4.83
2022-12-23T03:09:56.081Z,4.86
2022-12-23T03:13:10.042Z,4.82
2022-12-23T03:16:15.611Z,4.77
2022-12-23T03:19:30.047Z,4.72
2022-12-23T03:22:38.151Z,4.76
2022-12-23T03:25:53.757Z,4.75
2022-12-23T03:29:03.829Z,4.74
2022-12-23T03:32:08.242Z,4.73
2022-12-23T03:35:15.809Z,4.67
2022-12-23T03:38:19.384Z,4.68
2022-12-23T03:41:27.988Z,4.58
2022-12-23T03:44:35.454Z,4.45
2022-12-23T03:47:46.808Z,4.48
2022-12-23T03:50:53.735Z,4.56
2022-12-23T03:54:07.825Z,4.56
2022-12-23T03:57:12.306Z,4.48
2022-12-23T04:00:15.023Z,4.47
2022-12-23T04:03:26.332Z,4.46
2022-12-23T04:06:34.132Z,4.42
2022-12-23T04:09:37.903Z,4.36
2022-12-23T04:12:40.647Z,4.24
2022-12-23T04:15:43.465Z,4.27
2022-12-23T04:18:45.869Z,4.32
2022-12-23T04:21:48.526Z,4.37
2022-12-23T04:24:50.989Z,4.38
2022-12-23T04:27:53.646Z,4.34
2022-12-23T04:30:56.002Z,4.38
2022-12-23T04:33:58.730Z,4.38
2022-12-23T04:37:01.163Z,4.35
2022-12-23T04:40:04.732Z,4.32
2022-12-23T04:43:07.084Z,4.32
2022-12-23T04:46:09.814Z,4.13
2022-12-23T04:49:12.154Z,4.21
2022-12-23T04:52:14.857Z,4.21
2022-12-23T04:55:17.187Z,4.12
2022-12-23T04:58:22.162Z,3.95
2022-12-23T05:01:24.635Z,3.88
2022-12-23T05:04:27.467Z,3.77
2022-12-23T05:07:29.941Z,3.88
2022-12-23T05:10:32.673Z,3.89
2022-12-23T05:13:35.070Z,3.71
2022-12-23T05:16:38.050Z,3.84
2022-12-23T05:19:40.403Z,3.86
2022-12-23T05:22:43.052Z,3.81
2022-12-23T05:25:51.803Z,3.85
2022-12-23T05:28:55.088Z,3.81
2022-12-23T05:31:57.544Z,3.86
2022-12-23T05:35:00.182Z,3.67
2022-12-23T05:38:03.385Z,3.89
2022-12-23T05:41:06.344Z,3.90
2022-12-23T05:44:08.654Z,3.94
2022-12-23T05:47:11.667Z,3.92
2022-12-23T05:50:14.253Z,3.83
2022-12-23T05:53:17.100Z,3.85
2022-12-23T05:56:19.484Z,3.90
2022-12-23T05:59:23.572Z,3.76
2022-12-23T06:02:28.831Z,3.85
2022-12-23T06:05:31.567Z,3.76
2022-12-23T06:08:33.998Z,3.45
2022-12-23T06:11:36.641Z,3.24
2022-12-23T06:14:38.968Z,3.30
2022-12-23T06:17:41.752Z,3.39
2022-12-23T06:20:48.065Z,3.55
2022-12-23T06:23:50.766Z,3.47
2022-12-23T06:26:57.081Z,3.51
2022-12-23T06:30:00.256Z,3.48
2022-12-23T06:33:02.535Z,3.51
2022-12-23T06:36:05.721Z,3.50
2022-12-23T06:39:10.435Z,3.54
2022-12-23T06:42:13.047Z,3.49
2022-12-23T06:45:15.378Z,3.39
2022-12-23T06:48:18.074Z,3.48
2022-12-23T06:51:20.458Z,3.44
2022-12-23T06:54:23.087Z,3.53
2022-12-23T06:57:25.370Z,3.52
2022-12-23T07:00:28.057Z,3.61
2022-12-23T07:03:30.475Z,3.51
2022-12-23T07:06:33.130Z,3.65
2022-12-23T07:09:35.487Z,3.73
2022-12-23T07:12:38.632Z,3.76
2022-12-23T07:15:40.982Z,3.76
2022-12-23T07:18:43.929Z,3.44
2022-12-23T07:21:46.236Z,3.57
2022-12-23T07:24:48.845Z,3.49
2022-12-23T07:27:55.232Z,3.25
2022-12-23T07:30:58.080Z,3.41
2022-12-23T07:34:00.504Z,3.42
2022-12-23T07:37:03.145Z,3.33
2022-12-23T07:40:08.807Z,3.26
2022-12-23T07:43:11.827Z,3.43
2022-12-23T07:46:14.290Z,3.17
2022-12-23T07:49:17.034Z,3.40
2022-12-23T07:52:19.527Z,3.30
2022-12-23T07:55:22.545Z,3.43
2022-12-23T07:58:25.225Z,3.37
2022-12-23T08:01:27.949Z,3.21
2022-12-23T08:04:30.658Z,3.20
2022-12-23T08:07:33.043Z,3.45
2022-12-23T08:10:35.746Z,3.39
2022-12-23T08:13:40.083Z,3.47
2022-12-23T08:16:44.261Z,3.44
2022-12-23T08:19:47.889Z,3.57
2022-12-23T08:22:50.553Z,3.68
2022-12-23T08:26:08.144Z,3.79
2022-12-23T08:29:10.711Z,3.86
2022-12-23T08:32:13.079Z,3.70
2022-12-23T08:35:15.964Z,3.69
2022-12-23T08:38:18.352Z,3.68
2022-12-23T08:41:25.024Z,3.67
2022-12-23T08:44:28.142Z,3.63
2022-12-23T08:47:30.887Z,3.65
2022-12-23T08:50:40.717Z,3.65
2022-12-23T08:53:43.508Z,3.72
2022-12-23T08:56:45.810Z,3.73
2022-12-23T08:59:48.445Z,3.63
2022-12-23T09:02:50.887Z,3.67
2022-12-23T09:05:53.574Z,3.64
2022-12-23T09:08:56.230Z,3.57
2022-12-23T09:11:58.855Z,3.55
2022-12-23T09:15:01.237Z,3.67
2022-12-23T09:18:03.918Z,3.71
2022-12-23T09:21:10.964Z,3.66
2022-12-23T09:24:13.701Z,3.76
2022-12-23T09:27:16.288Z,3.68
2022-12-23T09:30:19.175Z,3.74
2022-12-23T09:33:21.783Z,3.71
2022-12-23T09:36:24.530Z,3.84
2022-12-23T09:39:26.864Z,3.95
2022-12-23T09:42:48.128Z,4.12
2022-12-23T09:45:53.399Z,4.19
2022-12-23T09:49:02.651Z,4.01
2022-12-23T09:52:13.736Z,4.00
2022-12-23T09:55:18.744Z,3.92
2022-12-23T09:58:35.679Z,3.90
2022-12-23T10:02:04.759Z,3.84
2022-12-23T10:05:46.182Z,3.84
2022-12-23T10:08:53.617Z,3.73
2022-12-23T10:11:57.140Z,3.77
2022-12-23T10:15:02.672Z,3.64
2022-12-23T10:18:28.225Z,3.77
2022-12-23T10:21:37.798Z,3.73
2022-12-23T10:24:47.636Z,3.78
2022-12-23T10:27:50.156Z,3.86
2022-12-23T10:31:31.149Z,3.99
2022-12-23T10:34:48.711Z,3.78
2022-12-23T10:38:03.522Z,3.75
2022-12-23T10:41:15.411Z,3.84
2022-12-23T10:44:24.503Z,3.82
2022-12-23T10:47:51.959Z,3.76
2022-12-23T10:51:01.436Z,3.84
2022-12-23T10:54:12.071Z,3.82
2022-12-23T10:57:16.783Z,3.86
2022-12-23T11:00:23.104Z,3.84
2022-12-23T11:03:30.129Z,3.74
2022-12-23T11:06:37.616Z,3.74
2022-12-23T11:09:54.467Z,3.92
2022-12-23T11:12:56.882Z,4.00
2022-12-23T11:16:32.264Z,3.92
2022-12-23T11:19:34.736Z,3.96
2022-12-23T11:22:49.725Z,4.16
2022-12-23T11:26:00.038Z,4.07
2022-12-23T11:29:10.686Z,4.01
2022-12-23T11:32:20.915Z,4.05
2022-12-23T11:35:30.104Z,3.96
2022-12-23T11:38:33.955Z,3.90
2022-12-23T11:41:40.184Z,3.96
2022-12-23T11:44:51.908Z,3.83
2022-12-23T11:47:56.232Z,3.94
2022-12-23T11:51:04.018Z,3.95
2022-12-23T11:54:06.676Z,4.12
2022-12-23T11:57:19.339Z,4.15
2022-12-23T12:00:36.663Z,4.27
2022-12-23T12:03:48.756Z,4.26
2022-12-23T12:06:56.564Z,4.37
2022-12-23T12:10:01.796Z,4.44
2022-12-23T12:13:08.317Z,4.45
2022-12-23T12:16:22.764Z,4.50
2022-12-23T12:19:57.776Z,4.51
2022-12-23T12:23:09.529Z,4.53
2022-12-23T12:26:23.579Z,4.53
2022-12-23T12:29:38.046Z,4.68
2022-12-23T12:32:46.420Z,4.59
2022-12-23T12:35:57.782Z,4.55
2022-12-23T12:39:02.641Z,4.68
2022-12-23T12:42:14.455Z,4.81
2022-12-23T12:45:22.684Z,4.87
2022-12-23T12:48:32.669Z,4.91
2022-12-23T12:51:46.596Z,4.91
2022-12-23T12:55:01.516Z,4.94
2022-12-23T12:58:03.971Z,4.99
2022-12-23T13:01:22.192Z,4.94
2022-12-23T13:04:30.532Z,4.91
2022-12-23T13:08:02.512Z,4.92
2022-12-23T13:11:33.780Z,4.83
2022-12-23T13:14:59.187Z,4.89
2022-12-23T13:18:21.651Z,4.96
2022-12-23T13:21:38.377Z,5.01
2022-12-23T13:24:58.734Z,5.07
2022-12-23T13:28:54.320Z,5.11
2022-12-23T13:32:27.894Z,5.19
2022-12-23T13:35:39.256Z,5.23
2022-12-23T13:39:00.206Z,5.17
2022-12-23T13:42:06.034Z,5.10
2022-12-23T13:45:17.539Z,5.12
2022-12-23T13:48:47.951Z,5.11
2022-12-23T13:52:11.515Z,5.12
2022-12-23T13:55:29.166Z,5.21
2022-12-23T13:58:32.792Z,5.21
2022-12-23T14:01:47.399Z,5.25
2022-12-23T14:04:59.157Z,5.20
2022-12-23T14:08:06.438Z,5.28
2022-12-23T14:11:09.064Z,5.31
2022-12-23T14:14:57.904Z,5.30
2022-12-23T14:18:48.929Z,5.33
2022-12-23T14:22:13.006Z,5.25
2022-12-23T14:25:45.935Z,5.32
2022-12-23T14:29:09.398Z,5.37
2022-12-23T14:32:44.479Z,5.24
2022-12-23T14:35:46.748Z,5.26
2022-12-23T14:39:11.136Z,5.17
2022-12-23T14:42:32.536Z,5.28
2022-12-23T14:45:42.376Z,5.31
2022-12-23T14:48:44.663Z,5.38
2022-12-23T14:51:50.867Z,5.44
2022-12-23T14:55:21.121Z,5.35
2022-12-23T14:58:20.090Z,5.41
2022-12-23T15:01:34.357Z,5.50
2022-12-23T15:04:46.504Z,5.53
2022-12-23T15:07:49.406Z,5.45
2022-12-23T15:10:52.166Z,5.47
2022-12-23T15:13:57.213Z,5.51
2022-12-23T15:17:00.333Z,5.57
2022-12-23T15:20:23.404Z,5.53
2022-12-23T15:23:26.428Z,5.58
2022-12-23T15:26:32.853Z,5.51
2022-12-23T15:29:35.652Z,5.32
2022-12-23T15:32:41.244Z,5.43
2022-12-23T15:35:44.358Z,5.36
2022-12-23T15:38:46.755Z,5.48
2022-12-23T15:41:49.391Z,5.48
2022-12-23T15:44:51.882Z,5.46
2022-12-23T15:47:55.179Z,5.51
2022-12-23T15:51:11.811Z,5.49
2022-12-23T15:54:23.035Z,5.42
2022-12-23T15:57:28.331Z,5.42
2022-12-23T16:00:41.076Z,5.46
2022-12-23T16:03:51.390Z,5.52
2022-12-23T16:06:55.496Z,5.48
2022-12-23T16:10:02.102Z,5.47
2022-12-23T16:13:04.442Z,5.48
2022-12-23T16:16:29.362Z,5.49
2022-12-23T16:19:43.820Z,5.42
2022-12-23T16:22:50.368Z,5.49
2022-12-23T16:25:53.579Z,5.43
2022-12-23T16:29:00.808Z,5.48
2022-12-23T16:32:03.259Z,5.56
2022-12-23T16:35:12.937Z,5.51
2022-12-23T16:38:33.297Z,5.53
2022-12-23T16:41:36.304Z,5.51
2022-12-23T16:44:39.562Z,5.51
2022-12-23T16:47:42.889Z,5.55
2022-12-23T16:50:46.233Z,5.50
2022-12-23T16:53:57.518Z,5.53
2022-12-23T16:57:00.107Z,5.43
2022-12-23T17:00:02.974Z,5.54
2022-12-23T17:03:07.103Z,5.49
2022-12-23T17:06:14.094Z,5.56
2022-12-23T17:09:16.465Z,5.56
2022-12-23T17:12:19.427Z,5.53
2022-12-23T17:15:24.233Z,5.50
2022-12-23T17:18:26.805Z,5.42
2022-12-23T17:21:33.491Z,5.50
2022-12-23T17:24:36.317Z,5.52
2022-12-23T17:27:40.314Z,5.46
2022-12-23T17:30:42.964Z,5.48
2022-12-23T17:33:45.349Z,5.57
2022-12-23T17:36:50.712Z,5.53
2022-12-23T17:39:53.388Z,5.53
2022-12-23T17:42:56.007Z,5.48
2022-12-23T17:45:58.433Z,5.48
2022-12-23T17:49:01.069Z,5.52
2022-12-23T17:52:06.497Z,5.38
2022-12-23T17:55:24.379Z,5.46
2022-12-23T17:58:26.839Z,5.45
2022-12-23T18:01:31.952Z,5.47
2022-12-23T18:04:34.687Z,5.47
2022-12-23T18:07:36.986Z,5.49
2022-12-23T18:10:40.767Z,5.37
2022-12-23T18:13:43.180Z,5.34
2022-12-23T18:16:46.414Z,5.45
2022-12-23T18:19:49.021Z,5.45
2022-12-23T18:22:53.725Z,5.48
2022-12-23T18:25:57.257Z,5.43
2022-12-23T18:28:59.926Z,5.44
2022-12-23T18:32:02.240Z,5.49
2022-12-23T18:35:22.277Z,5.56
2022-12-23T18:38:24.652Z,5.57
2022-12-23T18:41:28.051Z,5.56
2022-12-23T18:44:30.386Z,5.52
2022-12-23T18:47:33.075Z,5.54
2022-12-23T18:50:38.625Z,5.56
2022-12-23T18:53:41.687Z,5.55
2022-12-23T18:56:44.410Z,5.52
2022-12-23T18:59:47.058Z,5.56
2022-12-23T19:02:50.373Z,5.56
2022-12-23T19:05:55.060Z,5.40
2022-12-23T19:08:57.467Z,5.40
2022-12-23T19:12:00.408Z,5.47
2022-12-23T19:15:02.795Z,5.47
2022-12-23T19:18:05.557Z,5.50
2022-12-23T19:21:09.306Z,5.32
2022-12-23T19:24:12.048Z,5.43
2022-12-23T19:27:14.319Z,5.40
2022-12-23T19:30:18.176Z,5.40
2022-12-23T19:33:20.464Z,5.40
2022-12-23T19:36:23.490Z,5.43
2022-12-23T19:39:27.011Z,5.24
2022-12-23T19:42:30.558Z,5.32
2022-12-23T19:45:32.898Z,5.33
2022-12-23T19:48:36.454Z,5.28
2022-12-23T19:51:38.760Z,5.22
2022-12-23T19:54:41.410Z,5.27
2022-12-23T19:57:43.899Z,5.30
2022-12-23T20:00:46.541Z,5.31
2022-12-23T20:03:50.029Z,5.34
2022-12-23T20:06:52.455Z,5.30
2022-12-23T20:09:55.108Z,5.31
2022-12-23T20:12:57.421Z,5.38
2022-12-23T20:16:00.407Z,5.40
2022-12-23T20:19:03.616Z,5.39
2022-12-23T20:22:06.190Z,5.32
2022-12-23T20:25:08.783Z,5.30
2022-12-23T20:28:11.426Z,5.39
2022-12-23T20:31:22.587Z,5.50
2022-12-23T20:34:25.288Z,5.50
2022-12-23T20:37:27.654Z,5.37
2022-12-23T20:40:30.473Z,5.34
2022-12-23T20:43:34.718Z,5.36
2022-12-23T20:46:37.401Z,5.44
2022-12-23T20:49:39.815Z,5.43
2022-12-23T20:52:42.496Z,5.42
2022-12-23T20:55:44.871Z,5.41
2022-12-23T20:58:56.050Z,5.52
2022-12-23T21:01:59.358Z,5.51
2022-12-23T21:05:02.228Z,5.51
2022-12-23T21:08:04.829Z,5.52
2022-12-23T21:11:07.708Z,5.54
2022-12-23T21:14:10.609Z,5.51
2022-12-23T21:17:13.179Z,5.33
2022-12-23T21:20:15.560Z,5.34
2022-12-23T21:23:18.179Z,5.45
2022-12-23T21:26:23.174Z,5.48
2022-12-23T21:29:26.124Z,5.30
2022-12-23T21:32:28.469Z,5.36
2022-12-23T21:35:31.044Z,5.31
2022-12-23T21:38:39.225Z,5.23
2022-12-23T21:41:42.433Z,5.24
2022-12-23T21:44:44.727Z,5.27
2022-12-23T21:47:47.346Z,5.25
2022-12-23T21:50:49.631Z,5.16
2022-12-23T21:53:54.415Z,5.21
2022-12-23T21:56:56.765Z,5.18
2022-12-23T21:59:59.393Z,5.13
2022-12-23T22:03:01.761Z,5.10
2022-12-23T22:06:12.260Z,5.08
2022-12-23T22:09:19.135Z,5.08
2022-12-23T22:12:21.723Z,5.18
2022-12-23T22:15:24.121Z,5.22
2022-12-23T22:18:26.907Z,5.18
2022-12-23T22:21:31.965Z,5.16
2022-12-23T22:24:34.640Z,5.18
2022-12-23T22:27:37.053Z,5.14
2022-12-23T22:30:39.687Z,5.19
2022-12-23T22:33:42.231Z,5.21
2022-12-23T22:36:45.269Z,5.26
2022-12-23T22:39:47.769Z,5.33
2022-12-23T22:42:50.385Z,5.32
2022-12-23T22:46:00.488Z,5.33
2022-12-23T22:49:03.394Z,5.30
2022-12-23T22:52:05.700Z,5.32
2022-12-23T22:55:08.707Z,5.42
2022-12-23T22:58:11.083Z,5.45
2022-12-23T23:01:33.126Z,5.42
2022-12-23T23:04:35.574Z,5.51
2022-12-23T23:07:39.081Z,5.57
2022-12-23T23:10:41.892Z,5.59
2022-12-23T23:13:44.473Z,5.54
2022-12-23T23:16:47.431Z,5.63
2022-12-23T23:19:51.210Z,5.69
2022-12-23T23:22:53.636Z,5.64
2022-12-23T23:25:56.279Z,5.68
2022-12-23T23:28:58.590Z,5.66
2022-12-23T23:32:01.880Z,5.77
2022-12-23T23:35:10.565Z,5.76
2022-12-23T23:38:13.501Z,5.73
2022-12-23T23:41:20.668Z,5.74
2022-12-23T23:44:25.426Z,5.60
2022-12-23T23:47:27.779Z,5.38
2022-12-23T23:50:30.588Z,5.40
2022-12-23T23:53:33.008Z,5.42
2022-12-23T23:56:38.552Z,5.43
2022-12-23T23:59:41.597Z,5.45
